createdAt,value
2023-02-04T00:00:29.696Z,1.91
2023-02-04T00:02:57.167Z,1.79
2023-02-04T00:05:24.565Z,1.66
2023-02-04T00:07:51.915Z,1.60
2023-02-04T00:10:19.398Z,1.55
2023-02-04T00:12:47.033Z,1.51
2023-02-04T00:15:14.883Z,1.47
2023-02-04T00:17:42.164Z,1.43
2023-02-04T00:20:10.151Z,1.38
2023-02-04T00:22:37.578Z,1.32
2023-02-04T00:25:06.326Z,1.27
2023-02-04T00:27:33.808Z,1.24
2023-02-04T00:30:01.344Z,1.15
2023-02-04T00:32:28.677Z,1.09
2023-02-04T00:34:57.285Z,1.09
2023-02-04T00:37:26.497Z,1.06
2023-02-04T00:39:53.945Z,0.97
2023-02-04T00:42:21.321Z,0.89
2023-02-04T00:44:48.775Z,0.79
2023-02-04T00:47:16.355Z,0.75
2023-02-04T00:49:43.984Z,0.68
2023-02-04T00:52:11.311Z,0.63
2023-02-04T00:54:38.730Z,0.64
2023-02-04T00:57:06.023Z,0.63
2023-02-04T00:59:33.444Z,0.57
2023-02-04T01:02:00.854Z,0.61
2023-02-04T01:04:29.751Z,0.64
2023-02-04T01:06:57.358Z,0.70
2023-02-04T01:09:25.161Z,0.69
2023-02-04T01:11:52.997Z,0.69
2023-02-04T01:14:20.818Z,0.66
2023-02-04T01:16:48.481Z,0.67
2023-02-04T01:19:16.646Z,0.66
2023-02-04T01:21:44.657Z,0.66
2023-02-04T01:24:12.123Z,0.65
2023-02-04T01:26:58.114Z,0.68
2023-02-04T01:29:25.507Z,0.68
2023-02-04T01:31:52.973Z,0.64
2023-02-04T01:34:20.581Z,0.62
2023-02-04T01:36:48.960Z,0.63
2023-02-04T01:39:17.807Z,0.57
2023-02-04T01:41:47.465Z,0.46
2023-02-04T01:44:14.869Z,0.43
2023-02-04T01:46:42.329Z,0.44
2023-02-04T01:49:11.315Z,0.44
2023-02-04T01:51:39.594Z,0.41
2023-02-04T01:54:11.400Z,0.30
2023-02-04T01:56:47.417Z,0.29
2023-02-04T01:59:17.417Z,0.31
2023-02-04T02:01:50.557Z,0.32
2023-02-04T02:04:32.834Z,0.34
2023-02-04T02:07:05.653Z,0.38
2023-02-04T02:09:34.293Z,0.42
2023-02-04T02:12:03.491Z,0.49
2023-02-04T02:14:30.802Z,0.50
2023-02-04T02:16:58.574Z,0.50
2023-02-04T02:19:36.406Z,0.48
2023-02-04T02:22:11.234Z,0.49
2023-02-04T02:24:38.639Z,0.51
2023-02-04T02:27:09.476Z,0.49
2023-02-04T02:29:40.162Z,0.44
2023-02-04T02:32:09.359Z,0.41
2023-02-04T02:34:39.428Z,0.37
2023-02-04T02:37:09.233Z,0.33
2023-02-04T02:39:39.679Z,0.34
2023-02-04T02:42:07.604Z,0.26
2023-02-04T02:44:35.097Z,0.24
2023-02-04T02:47:02.534Z,0.16
2023-02-04T02:49:33.392Z,0.08
2023-02-04T02:52:01.041Z,0.03
2023-02-04T02:54:32.706Z,-0.03
2023-02-04T02:57:03.183Z,-0.05
2023-02-04T02:59:30.549Z,-0.06
2023-02-04T03:02:02.364Z,-0.13
2023-02-04T03:04:37.462Z,-0.12
2023-02-04T03:07:06.430Z,-0.15
2023-02-04T03:09:35.679Z,-0.14
2023-02-04T03:12:05.407Z,-0.13
2023-02-04T03:14:35.730Z,-0.11
2023-02-04T03:17:05.476Z,-0.07
2023-02-04T03:19:33.541Z,-0.04
2023-02-04T03:22:01.107Z,-0.07
2023-02-04T03:24:28.505Z,-0.08
2023-02-04T03:26:58.006Z,-0.06
2023-02-04T03:29:25.291Z,-0.05
2023-02-04T03:31:55.446Z,-0.10
2023-02-04T03:34:23.445Z,-0.15
2023-02-04T03:36:50.795Z,-0.26
2023-02-04T03:39:18.241Z,-0.36
2023-02-04T03:41:45.560Z,-0.43
2023-02-04T03:44:12.916Z,-0.52
2023-02-04T03:46:40.213Z,-0.49
2023-02-04T03:49:07.587Z,-0.54
2023-02-04T03:51:34.943Z,-0.58
2023-02-04T03:54:02.296Z,-0.65
2023-02-04T03:56:29.742Z,-0.71
2023-02-04T03:58:57.371Z,-0.69
2023-02-04T04:01:24.846Z,-0.82
2023-02-04T04:03:52.109Z,-0.87
2023-02-04T04:06:19.496Z,-0.87
2023-02-04T04:08:46.935Z,-0.85
2023-02-04T04:11:15.710Z,-0.89
2023-02-04T04:13:43.063Z,-0.86
2023-02-04T04:16:10.554Z,-0.87
2023-02-04T04:18:37.947Z,-0.83
2023-02-04T04:21:05.590Z,-0.82
2023-02-04T04:23:32.994Z,-0.81
2023-02-04T04:26:00.308Z,-0.81
2023-02-04T04:28:27.676Z,-0.79
2023-02-04T04:30:55.098Z,-0.82
2023-02-04T04:33:22.513Z,-0.81
2023-02-04T04:35:50.085Z,-0.80
2023-02-04T04:38:17.392Z,-0.81
2023-02-04T04:40:44.729Z,-0.67
2023-02-04T04:43:12.240Z,-0.57
2023-02-04T04:45:39.572Z,-0.49
2023-02-04T04:48:06.962Z,-0.65
2023-02-04T04:50:34.509Z,-0.75
2023-02-04T04:53:02.030Z,-0.84
2023-02-04T04:55:29.348Z,-0.87
2023-02-04T04:57:56.764Z,-0.86
2023-02-04T05:00:24.341Z,-0.84
2023-02-04T05:02:51.651Z,-0.82
2023-02-04T05:05:19.021Z,-0.84
2023-02-04T05:07:46.358Z,-0.93
2023-02-04T05:10:13.716Z,-0.97
2023-02-04T05:12:41.047Z,-0.95
2023-02-04T05:15:08.884Z,-1.02
2023-02-04T05:17:36.181Z,-1.08
2023-02-04T05:20:04.262Z,-1.19
2023-02-04T05:22:31.583Z,-1.28
2023-02-04T05:24:58.932Z,-1.35
2023-02-04T05:27:26.241Z,-1.37
2023-02-04T05:29:53.539Z,-1.39
2023-02-04T05:32:20.920Z,-1.44
2023-02-04T05:34:48.232Z,-1.47
2023-02-04T05:37:17.561Z,-1.48
2023-02-04T05:39:45.100Z,-1.43
2023-02-04T05:42:12.487Z,-1.43
2023-02-04T05:44:39.846Z,-1.42
2023-02-04T05:47:07.119Z,-1.44
2023-02-04T05:49:34.661Z,-1.43
2023-02-04T05:52:02.060Z,-1.42
2023-02-04T05:54:29.418Z,-1.40
2023-02-04T05:56:56.784Z,-1.42
2023-02-04T05:59:24.289Z,-1.40
2023-02-04T06:01:51.879Z,-1.42
2023-02-04T06:04:19.398Z,-1.46
2023-02-04T06:06:47.933Z,-1.44
2023-02-04T06:09:15.439Z,-1.49
2023-02-04T06:11:42.846Z,-1.53
2023-02-04T06:14:10.981Z,-1.59
2023-02-04T06:16:38.420Z,-1.68
2023-02-04T06:19:05.916Z,-1.73
2023-02-04T06:21:33.257Z,-1.79
2023-02-04T06:24:00.641Z,-1.83
2023-02-04T06:26:28.174Z,-1.78
2023-02-04T06:28:55.558Z,-1.90
2023-02-04T06:31:23.137Z,-1.86
2023-02-04T06:33:51.047Z,-1.81
2023-02-04T06:36:18.298Z,-1.84
2023-02-04T06:38:45.557Z,-1.92
2023-02-04T06:41:12.924Z,-1.94
2023-02-04T06:43:40.358Z,-1.95
2023-02-04T06:46:07.830Z,-2.03
2023-02-04T06:48:35.252Z,-2.03
2023-02-04T06:51:02.586Z,-2.04
2023-02-04T06:53:29.985Z,-2.08
2023-02-04T06:55:57.347Z,-2.12
2023-02-04T06:58:24.870Z,-2.13
2023-02-04T07:00:52.270Z,-2.09
2023-02-04T07:03:19.565Z,-2.10
2023-02-04T07:05:46.926Z,-2.08
2023-02-04T07:08:14.326Z,-2.11
2023-02-04T07:10:41.836Z,-2.09
2023-02-04T07:13:09.221Z,-2.02
2023-02-04T07:15:36.754Z,-1.96
2023-02-04T07:18:04.042Z,-1.84
2023-02-04T07:20:31.817Z,-1.81
2023-02-04T07:22:59.329Z,-1.69
2023-02-04T07:25:26.830Z,-1.74
2023-02-04T07:27:54.191Z,-1.75
2023-02-04T07:30:21.602Z,-1.69
2023-02-04T07:32:48.941Z,-1.66
2023-02-04T07:35:17.697Z,-1.61
2023-02-04T07:37:45.094Z,-1.62
2023-02-04T07:40:13.042Z,-1.54
2023-02-04T07:42:40.405Z,-1.60
2023-02-04T07:45:12.973Z,-1.65
2023-02-04T07:47:40.336Z,-1.68
2023-02-04T07:50:08.027Z,-1.60
2023-02-04T07:52:35.454Z,-1.54
2023-02-04T07:55:02.964Z,-1.53
2023-02-04T07:57:31.133Z,-1.45
2023-02-04T07:59:59.275Z,-1.37
2023-02-04T08:02:27.098Z,-1.43
2023-02-04T08:04:54.417Z,-1.38
2023-02-04T08:07:21.729Z,-1.36
2023-02-04T08:09:49.131Z,-1.48
2023-02-04T08:12:16.425Z,-1.40
2023-02-04T08:14:43.825Z,-1.37
2023-02-04T08:17:11.283Z,-1.37
2023-02-04T08:19:38.803Z,-1.34
2023-02-04T08:22:06.221Z,-1.30
2023-02-04T08:24:33.622Z,-1.09
2023-02-04T08:27:00.914Z,-0.39
2023-02-04T08:29:28.478Z,-0.01
2023-02-04T08:31:55.968Z,0.78
2023-02-04T08:34:23.350Z,1.48
2023-02-04T08:36:50.679Z,2.60
2023-02-04T08:39:18.087Z,3.57
2023-02-04T08:41:45.938Z,3.57
2023-02-04T08:44:16.181Z,3.52
2023-02-04T08:46:43.530Z,3.89
2023-02-04T08:49:10.895Z,2.96
2023-02-04T08:51:44.412Z,1.50
2023-02-04T08:54:12.195Z,0.75
2023-02-04T08:56:40.043Z,0.39
2023-02-04T08:59:07.448Z,0.10
2023-02-04T09:01:34.809Z,-0.04
2023-02-04T09:04:02.349Z,-0.10
2023-02-04T09:06:29.786Z,-0.23
2023-02-04T09:08:58.196Z,-0.31
2023-02-04T09:11:26.027Z,-0.33
2023-02-04T09:13:53.368Z,-0.32
2023-02-04T09:16:20.830Z,-0.26
2023-02-04T09:18:48.376Z,-0.20
2023-02-04T09:21:15.623Z,-0.16
2023-02-04T09:23:42.998Z,0.06
2023-02-04T09:26:10.521Z,0.23
2023-02-04T09:28:38.144Z,0.62
2023-02-04T09:31:06.663Z,0.96
2023-02-04T09:33:35.182Z,0.82
2023-02-04T09:36:02.552Z,0.69
2023-02-04T09:38:29.994Z,0.74
2023-02-04T09:41:07.464Z,1.02
2023-02-04T09:43:37.047Z,1.12
2023-02-04T09:46:05.625Z,1.13
2023-02-04T09:48:33.362Z,1.08
2023-02-04T09:51:06.485Z,0.89
2023-02-04T09:53:36.552Z,1.09
2023-02-04T09:56:04.172Z,1.45
2023-02-04T09:58:34.645Z,1.62
2023-02-04T10:01:12.585Z,1.39
2023-02-04T10:03:46.581Z,1.06
2023-02-04T10:06:19.734Z,1.13
2023-02-04T10:08:48.940Z,1.39
2023-02-04T10:11:19.981Z,1.78
2023-02-04T10:13:50.404Z,1.92
2023-02-04T10:16:22.703Z,1.39
2023-02-04T10:18:50.993Z,1.14
2023-02-04T10:21:21.972Z,1.14
2023-02-04T10:23:51.722Z,1.36
2023-02-04T10:26:21.909Z,1.31
2023-02-04T10:28:52.002Z,1.00
2023-02-04T10:31:38.567Z,0.87
2023-02-04T10:34:12.066Z,0.94
2023-02-04T10:36:49.079Z,0.79
2023-02-04T10:39:19.556Z,0.76
2023-02-04T10:41:50.953Z,0.77
2023-02-04T10:44:36.615Z,1.01
2023-02-04T10:47:19.204Z,1.19
2023-02-04T10:50:15.586Z,1.40
2023-02-04T10:52:47.137Z,1.25
2023-02-04T10:55:20.893Z,1.06
2023-02-04T10:57:50.655Z,0.94
2023-02-04T11:00:20.573Z,0.62
2023-02-04T11:02:58.797Z,0.63
2023-02-04T11:05:32.404Z,0.82
2023-02-04T11:08:00.199Z,1.56
2023-02-04T11:10:32.050Z,2.22
2023-02-04T11:13:05.009Z,2.34
2023-02-04T11:15:50.861Z,2.11
2023-02-04T11:18:21.529Z,2.10
2023-02-04T11:20:52.327Z,2.45
2023-02-04T11:23:26.308Z,2.58
2023-02-04T11:26:10.283Z,2.41
2023-02-04T11:28:46.034Z,1.60
2023-02-04T11:31:22.569Z,1.12
2023-02-04T11:34:02.325Z,0.88
2023-02-04T11:36:30.694Z,0.77
2023-02-04T11:39:08.363Z,0.85
2023-02-04T11:41:35.829Z,1.36
2023-02-04T11:44:03.175Z,1.98
2023-02-04T11:46:30.640Z,1.82
2023-02-04T11:48:59.177Z,1.51
2023-02-04T11:51:32.193Z,1.48
2023-02-04T11:54:00.385Z,1.01
2023-02-04T11:56:30.268Z,0.81
2023-02-04T11:58:59.006Z,0.83
2023-02-04T12:01:32.387Z,1.17
2023-02-04T12:04:04.925Z,1.58
2023-02-04T12:06:34.693Z,1.96
2023-02-04T12:09:17.629Z,2.06
2023-02-04T12:11:53.653Z,2.05
2023-02-04T12:14:21.623Z,1.86
2023-02-04T12:16:54.135Z,1.60
2023-02-04T12:19:21.470Z,1.50
2023-02-04T12:21:49.029Z,1.48
2023-02-04T12:24:16.353Z,1.31
2023-02-04T12:26:43.746Z,1.12
2023-02-04T12:29:11.114Z,0.89
2023-02-04T12:31:38.535Z,0.75
2023-02-04T12:34:05.948Z,0.64
2023-02-04T12:36:33.362Z,0.52
2023-02-04T12:39:00.835Z,0.92
2023-02-04T12:41:28.486Z,1.45
2023-02-04T12:43:55.877Z,1.64
2023-02-04T12:46:23.550Z,1.76
2023-02-04T12:48:50.852Z,1.86
2023-02-04T12:51:18.267Z,2.31
2023-02-04T12:53:45.571Z,2.52
2023-02-04T12:56:13.139Z,2.59
2023-02-04T12:58:40.494Z,2.42
2023-02-04T13:01:08.254Z,2.20
2023-02-04T13:03:35.610Z,2.24
2023-02-04T13:06:02.968Z,2.14
2023-02-04T13:08:30.557Z,1.75
2023-02-04T13:10:57.990Z,1.48
2023-02-04T13:13:25.356Z,1.28
2023-02-04T13:15:52.773Z,1.44
2023-02-04T13:18:20.171Z,1.65
2023-02-04T13:20:47.511Z,1.79
2023-02-04T13:23:15.073Z,1.96
2023-02-04T13:25:43.842Z,2.13
2023-02-04T13:28:11.235Z,2.21
2023-02-04T13:30:38.874Z,2.21
2023-02-04T13:33:06.724Z,2.10
2023-02-04T13:35:34.293Z,1.91
2023-02-04T13:38:02.462Z,1.78
2023-02-04T13:40:29.925Z,1.88
2023-02-04T13:42:57.392Z,2.06
2023-02-04T13:45:24.840Z,2.13
2023-02-04T13:47:52.515Z,2.10
2023-02-04T13:50:19.921Z,1.89
2023-02-04T13:52:47.249Z,1.88
2023-02-04T13:55:14.690Z,1.96
2023-02-04T13:57:42.086Z,1.98
2023-02-04T14:00:10.609Z,1.90
2023-02-04T14:02:40.798Z,2.00
2023-02-04T14:05:08.821Z,1.95
2023-02-04T14:07:36.366Z,1.99
2023-02-04T14:10:04.386Z,1.82
2023-02-04T14:12:31.732Z,1.51
2023-02-04T14:14:59.176Z,1.46
2023-02-04T14:17:26.701Z,1.58
2023-02-04T14:19:54.166Z,1.66
2023-02-04T14:22:21.571Z,1.79
2023-02-04T14:24:50.458Z,1.86
2023-02-04T14:27:17.967Z,1.66
2023-02-04T14:29:45.310Z,1.57
2023-02-04T14:32:12.710Z,1.51
2023-02-04T14:34:40.179Z,1.58
2023-02-04T14:37:07.825Z,1.76
2023-02-04T14:39:35.322Z,2.01
2023-02-04T14:42:05.391Z,2.11
2023-02-04T14:44:32.913Z,2.22
2023-02-04T14:47:00.444Z,2.17
2023-02-04T14:49:27.835Z,1.95
2023-02-04T14:51:57.072Z,1.99
2023-02-04T14:54:24.451Z,1.99
2023-02-04T14:56:52.773Z,1.91
2023-02-04T14:59:20.479Z,1.73
2023-02-04T15:01:47.835Z,1.81
2023-02-04T15:04:15.956Z,1.83
2023-02-04T15:06:43.425Z,1.74
2023-02-04T15:09:10.901Z,1.77
2023-02-04T15:11:38.494Z,1.78
2023-02-04T15:14:05.881Z,1.65
2023-02-04T15:16:33.479Z,1.61
2023-02-04T15:19:00.979Z,1.64
2023-02-04T15:21:28.356Z,1.62
2023-02-04T15:23:55.777Z,1.42
2023-02-04T15:26:25.074Z,1.20
2023-02-04T15:28:52.584Z,1.10
2023-02-04T15:31:19.929Z,1.13
2023-02-04T15:33:47.376Z,0.97
2023-02-04T15:36:14.913Z,0.88
2023-02-04T15:38:42.713Z,0.69
2023-02-04T15:41:10.188Z,0.56
2023-02-04T15:43:37.918Z,0.47
2023-02-04T15:46:05.608Z,0.44
2023-02-04T15:48:33.103Z,0.33
2023-02-04T15:51:00.524Z,0.29
2023-02-04T15:53:27.918Z,0.21
2023-02-04T15:55:55.238Z,0.07
2023-02-04T15:58:22.711Z,0.07
2023-02-04T16:00:50.035Z,-0.05
2023-02-04T16:03:17.385Z,-0.15
2023-02-04T16:05:44.804Z,-0.15
2023-02-04T16:08:12.255Z,-0.23
2023-02-04T16:10:39.558Z,-0.38
2023-02-04T16:13:07.066Z,-0.41
2023-02-04T16:15:35.055Z,-0.45
2023-02-04T16:18:02.721Z,-0.46
2023-02-04T16:20:30.015Z,-0.46
2023-02-04T16:22:57.801Z,-0.51
2023-02-04T16:25:25.434Z,-0.52
2023-02-04T16:27:52.805Z,-0.55
2023-02-04T16:30:20.231Z,-0.61
2023-02-04T16:32:47.752Z,-0.66
2023-02-04T16:35:15.192Z,-0.67
2023-02-04T16:37:42.617Z,-0.71
2023-02-04T16:40:11.865Z,-0.72
2023-02-04T16:42:39.238Z,-0.73
2023-02-04T16:45:06.996Z,-0.76
2023-02-04T16:47:34.368Z,-0.81
2023-02-04T16:50:01.786Z,-0.86
2023-02-04T16:52:30.326Z,-0.94
2023-02-04T16:54:59.005Z,-0.90
2023-02-04T16:57:26.362Z,-0.89
2023-02-04T16:59:53.821Z,-0.96
2023-02-04T17:02:21.081Z,-0.90
2023-02-04T17:04:48.512Z,-0.83
2023-02-04T17:07:15.947Z,-0.92
2023-02-04T17:09:44.059Z,-1.04
2023-02-04T17:12:11.471Z,-1.10
2023-02-04T17:14:41.220Z,-1.13
2023-02-04T17:17:08.573Z,-1.11
2023-02-04T17:19:36.107Z,-1.15
2023-02-04T17:22:03.388Z,-1.23
2023-02-04T17:24:30.865Z,-1.19
2023-02-04T17:26:59.344Z,-1.23
2023-02-04T17:29:26.661Z,-1.29
2023-02-04T17:31:54.040Z,-1.26
2023-02-04T17:34:21.393Z,-1.23
2023-02-04T17:36:48.805Z,-1.10
2023-02-04T17:39:16.316Z,-1.09
2023-02-04T17:41:43.717Z,-1.11
2023-02-04T17:44:17.034Z,-1.17
2023-02-04T17:46:44.443Z,-1.20
2023-02-04T17:49:12.073Z,-1.28
2023-02-04T17:51:39.436Z,-1.25
2023-02-04T17:54:06.809Z,-1.28
2023-02-04T17:56:34.173Z,-1.40
2023-02-04T17:59:01.604Z,-1.39
2023-02-04T18:01:29.149Z,-1.38
2023-02-04T18:03:56.909Z,-1.47
2023-02-04T18:06:29.791Z,-1.55
2023-02-04T18:09:02.195Z,-1.61
2023-02-04T18:11:39.845Z,-1.61
2023-02-04T18:14:20.755Z,-1.57
2023-02-04T18:16:48.104Z,-1.53
2023-02-04T18:19:18.084Z,-1.65
2023-02-04T18:21:46.642Z,-1.68
2023-02-04T18:24:19.836Z,-1.71
2023-02-04T18:26:50.280Z,-1.71
2023-02-04T18:29:26.974Z,-1.61
2023-02-04T18:31:57.885Z,-1.61
2023-02-04T18:34:36.345Z,-1.57
2023-02-04T18:37:42.382Z,-1.48
2023-02-04T18:40:09.687Z,-1.50
2023-02-04T18:42:39.244Z,-1.49
2023-02-04T18:45:27.560Z,-1.49
2023-02-04T18:48:16.409Z,-1.56
2023-02-04T18:50:44.526Z,-1.58
2023-02-04T18:53:15.122Z,-1.64
2023-02-04T18:55:47.857Z,-1.67
2023-02-04T18:58:34.118Z,-1.59
2023-02-04T19:01:24.026Z,-1.66
2023-02-04T19:03:58.555Z,-1.70
2023-02-04T19:06:37.424Z,-1.78
2023-02-04T19:09:14.566Z,-1.85
2023-02-04T19:11:46.004Z,-1.80
2023-02-04T19:14:22.498Z,-1.79
2023-02-04T19:16:52.758Z,-1.75
2023-02-04T19:19:26.086Z,-1.77
2023-02-04T19:21:53.497Z,-1.75
2023-02-04T19:24:26.948Z,-1.77
2023-02-04T19:26:57.082Z,-1.69
2023-02-04T19:29:33.254Z,-1.72
2023-02-04T19:32:18.261Z,-1.63
2023-02-04T19:34:45.653Z,-1.63
2023-02-04T19:37:37.190Z,-1.68
2023-02-04T19:40:23.166Z,-1.65
2023-02-04T19:42:54.013Z,-1.68
2023-02-04T19:45:23.668Z,-1.69
2023-02-04T19:47:55.586Z,-1.72
2023-02-04T19:50:33.421Z,-1.71
2023-02-04T19:53:26.909Z,-1.74
2023-02-04T19:55:54.529Z,-1.68
2023-02-04T19:58:24.674Z,-1.63
2023-02-04T20:00:52.032Z,-1.65
2023-02-04T20:03:22.479Z,-1.69
2023-02-04T20:05:49.987Z,-1.72
2023-02-04T20:08:42.379Z,-1.72
2023-02-04T20:11:31.224Z,-1.76
2023-02-04T20:14:14.298Z,-1.90
2023-02-04T20:16:50.336Z,-2.00
2023-02-04T20:19:35.950Z,-2.04
2023-02-04T20:22:18.949Z,-2.14
2023-02-04T20:24:49.228Z,-2.17
2023-02-04T20:27:25.922Z,-2.25
2023-02-04T20:30:01.138Z,-2.29
2023-02-04T20:32:30.297Z,-2.36
2023-02-04T20:35:09.904Z,-2.36
2023-02-04T20:37:37.800Z,-2.49
2023-02-04T20:40:20.629Z,-2.42
2023-02-04T20:42:52.790Z,-2.43
2023-02-04T20:45:33.023Z,-2.37
2023-02-04T20:48:16.174Z,-2.35
2023-02-04T20:50:54.636Z,-2.32
2023-02-04T20:53:23.512Z,-2.41
2023-02-04T20:55:52.798Z,-2.50
2023-02-04T20:58:27.292Z,-2.48
2023-02-04T21:00:56.167Z,-2.54
2023-02-04T21:03:35.192Z,-2.53
2023-02-04T21:06:16.230Z,-2.52
2023-02-04T21:08:46.783Z,-2.49
2023-02-04T21:11:14.473Z,-2.50
2023-02-04T21:13:41.823Z,-2.60
2023-02-04T21:16:09.288Z,-2.58
2023-02-04T21:18:37.030Z,-2.66
2023-02-04T21:21:05.133Z,-2.70
2023-02-04T21:23:32.372Z,-2.81
2023-02-04T21:26:01.124Z,-2.83
2023-02-04T21:28:30.684Z,-2.91
2023-02-04T21:30:59.335Z,-2.90
2023-02-04T21:33:26.976Z,-2.95
2023-02-04T21:35:55.214Z,-2.99
2023-02-04T21:38:22.762Z,-3.06
2023-02-04T21:40:50.096Z,-3.12
2023-02-04T21:43:17.425Z,-3.12
2023-02-04T21:45:45.646Z,-3.08
2023-02-04T21:48:13.010Z,-3.09
2023-02-04T21:50:41.015Z,-3.22
2023-02-04T21:53:09.659Z,-3.32
2023-02-04T21:55:37.412Z,-3.29
2023-02-04T21:58:05.489Z,-3.28
2023-02-04T22:00:33.140Z,-3.20
2023-02-04T22:03:00.750Z,-3.30
2023-02-04T22:05:28.311Z,-3.32
2023-02-04T22:07:55.749Z,-3.38
2023-02-04T22:10:25.651Z,-3.38
2023-02-04T22:12:53.048Z,-3.29
2023-02-04T22:15:24.462Z,-3.28
2023-02-04T22:17:53.475Z,-3.33
2023-02-04T22:20:23.202Z,-3.34
2023-02-04T22:22:51.575Z,-3.43
2023-02-04T22:25:20.420Z,-3.42
2023-02-04T22:27:48.022Z,-3.34
2023-02-04T22:30:17.101Z,-3.33
2023-02-04T22:32:44.792Z,-3.40
2023-02-04T22:35:12.993Z,-3.48
2023-02-04T22:37:41.768Z,-3.45
2023-02-04T22:40:11.861Z,-3.37
2023-02-04T22:42:39.459Z,-3.51
2023-02-04T22:45:08.071Z,-3.56
2023-02-04T22:47:35.531Z,-3.57
2023-02-04T22:50:02.872Z,-3.64
2023-02-04T22:52:30.215Z,-3.77
2023-02-04T22:54:57.643Z,-3.78
2023-02-04T22:57:25.128Z,-3.78
2023-02-04T22:59:52.561Z,-3.84
2023-02-04T23:02:20.039Z,-3.92
2023-02-04T23:04:47.423Z,-3.94
2023-02-04T23:07:15.082Z,-3.96
2023-02-04T23:09:42.538Z,-4.05
2023-02-04T23:12:12.925Z,-4.05
2023-02-04T23:14:46.528Z,-4.13
2023-02-04T23:17:16.100Z,-4.16
2023-02-04T23:19:45.317Z,-4.18
2023-02-04T23:22:14.560Z,-4.26
2023-02-04T23:24:42.978Z,-4.31
2023-02-04T23:27:13.179Z,-4.35
2023-02-04T23:29:41.076Z,-4.38
2023-02-04T23:32:08.795Z,-4.33
2023-02-04T23:34:36.300Z,-4.37
2023-02-04T23:37:03.812Z,-4.38
2023-02-04T23:39:31.489Z,-4.37
2023-02-04T23:41:58.930Z,-4.44
2023-02-04T23:44:26.342Z,-4.48
2023-02-04T23:46:54.168Z,-4.50
2023-02-04T23:49:21.601Z,-4.46
2023-02-04T23:51:49.060Z,-4.50
2023-02-04T23:54:16.526Z,-4.56
2023-02-04T23:56:43.848Z,-4.54
2023-02-04T23:59:11.225Z,-4.57
